BAW901 EDDF-EDDH
Flight info
| Callsign | BAW901 |
|---|---|
| Flight time | 0h 51m |
| Altitude | 35000 |
| Route | MARUN3W/25C MARUN Y150 TOLGI DCT SAS/N0440F340 P605 NOLGO NOLGO6A |
| Aircraft | A20N/M-SDE2E3FGHIRWXY/LB1 |
Departure
| Time | 2026-05-05 18:20 |
|---|---|
| Airport | Frankfurt Main Airport (EDDF) |
Arrival
| Time | 2026-05-05 19:11 |
|---|---|
| Airport | Hamburg Helmut Schmidt Airport (EDDH) |
| Time | Latitude | Longitude | Altitude | Speed | Heading |
|---|---|---|---|---|---|
| 2026-05-05 17:39 | 50.03294 | 8.58074 | 365 ft | 0 kts | 252° |
| 2026-05-05 17:54 | 50.03296 | 8.58084 | 367 ft | 2 kts | 252° |
| 2026-05-05 17:54 | 50.03301 | 8.58109 | 364 ft | 2 kts | 252° |
| 2026-05-05 17:54 | 50.03307 | 8.58134 | 367 ft | 2 kts | 269° |
| 2026-05-05 17:55 | 50.03301 | 8.58156 | 364 ft | 2 kts | 336° |
| 2026-05-05 17:55 | 50.03300 | 8.58157 | 364 ft | 0 kts | 345° |
| 2026-05-05 18:01 | 50.03306 | 8.58158 | 369 ft | 3 kts | 2° |
| 2026-05-05 18:01 | 50.03349 | 8.58175 | 366 ft | 9 kts | 14° |
| 2026-05-05 18:02 | 50.03408 | 8.58159 | 371 ft | 10 kts | 340° |
| 2026-05-05 18:02 | 50.03486 | 8.58114 | 372 ft | 14 kts | 340° |
| 2026-05-05 18:02 | 50.03509 | 8.58100 | 373 ft | 0 kts | 340° |
| 2026-05-05 18:08 | 50.03511 | 8.58100 | 373 ft | 3 kts | 340° |
| 2026-05-05 18:09 | 50.03580 | 8.58099 | 374 ft | 8 kts | 39° |
| 2026-05-05 18:09 | 50.03615 | 8.58217 | 373 ft | 19 kts | 70° |
| 2026-05-05 18:09 | 50.03660 | 8.58403 | 374 ft | 18 kts | 69° |
| 2026-05-05 18:09 | 50.03706 | 8.58592 | 372 ft | 19 kts | 70° |
| 2026-05-05 18:10 | 50.03768 | 8.58738 | 374 ft | 13 kts | 13° |
| 2026-05-05 18:10 | 50.03829 | 8.58717 | 377 ft | 8 kts | 340° |
| 2026-05-05 18:10 | 50.03896 | 8.58678 | 379 ft | 0 kts | 339° |
| 2026-05-05 18:10 | 50.03897 | 8.58677 | 379 ft | 2 kts | 339° |
| 2026-05-05 18:11 | 50.03960 | 8.58633 | 379 ft | 14 kts | 327° |
| 2026-05-05 18:11 | 50.03977 | 8.58546 | 379 ft | 11 kts | 262° |
| 2026-05-05 18:11 | 50.03948 | 8.58410 | 378 ft | 16 kts | 250° |
| 2026-05-05 18:11 | 50.03895 | 8.58174 | 374 ft | 22 kts | 251° |
| 2026-05-05 18:12 | 50.03867 | 8.58007 | 373 ft | 14 kts | 263° |
| 2026-05-05 18:12 | 50.03899 | 8.57936 | 372 ft | 9 kts | 336° |
| 2026-05-05 18:12 | 50.03966 | 8.57900 | 370 ft | 14 kts | 340° |
| 2026-05-05 18:12 | 50.04051 | 8.57865 | 358 ft | 2 kts | 9° |
| 2026-05-05 18:13 | 50.04090 | 8.57963 | 359 ft | 18 kts | 71° |
| 2026-05-05 18:13 | 50.04130 | 8.58135 | 359 ft | 15 kts | 70° |
| 2026-05-05 18:13 | 50.04166 | 8.58284 | 361 ft | 15 kts | 69° |
| 2026-05-05 18:13 | 50.04198 | 8.58421 | 366 ft | 12 kts | 71° |
| 2026-05-05 18:14 | 50.04220 | 8.58520 | 366 ft | 9 kts | 69° |
| 2026-05-05 18:14 | 50.04276 | 8.58611 | 354 ft | 8 kts | 24° |
| 2026-05-05 18:14 | 50.04366 | 8.58632 | 336 ft | 17 kts | 5° |
| 2026-05-05 18:14 | 50.04386 | 8.58635 | 335 ft | 0 kts | 5° |
| 2026-05-05 18:15 | 50.04415 | 8.58639 | 336 ft | 9 kts | 5° |
| 2026-05-05 18:15 | 50.04473 | 8.58604 | 330 ft | 8 kts | 298° |
| 2026-05-05 18:16 | 50.04474 | 8.58538 | 332 ft | 10 kts | 257° |
| 2026-05-05 18:16 | 50.04471 | 8.58525 | 331 ft | 0 kts | 251° |
| 2026-05-05 18:19 | 50.04417 | 8.58291 | 334 ft | 55 kts | 249° |
| 2026-05-05 18:19 | 50.04211 | 8.57434 | 350 ft | 113 kts | 249° |
| 2026-05-05 18:19 | 50.03875 | 8.56023 | 364 ft | 162 kts | 250° |
| 2026-05-05 18:20 | 50.03466 | 8.54295 | 657 ft | 174 kts | 248° |
| 2026-05-05 18:20 | 50.03028 | 8.52525 | 1223 ft | 172 kts | 249° |
| 2026-05-05 18:20 | 50.02572 | 8.50835 | 1857 ft | 174 kts | 243° |
| 2026-05-05 18:20 | 50.01801 | 8.49255 | 2215 ft | 193 kts | 223° |
| 2026-05-05 18:21 | 50.00615 | 8.48194 | 2860 ft | 201 kts | 200° |
| 2026-05-05 18:21 | 49.99241 | 8.47725 | 3540 ft | 204 kts | 191° |
| 2026-05-05 18:21 | 49.97838 | 8.47418 | 3899 ft | 203 kts | 189° |
| 2026-05-05 18:21 | 49.96417 | 8.47098 | 3969 ft | 207 kts | 193° |
| 2026-05-05 18:22 | 49.94937 | 8.46534 | 3914 ft | 230 kts | 197° |
| 2026-05-05 18:22 | 49.93371 | 8.45817 | 3960 ft | 237 kts | 201° |
| 2026-05-05 18:22 | 49.91928 | 8.44633 | 3986 ft | 234 kts | 221° |
| 2026-05-05 18:22 | 49.90947 | 8.42660 | 3989 ft | 233 kts | 246° |
| 2026-05-05 18:23 | 49.90649 | 8.40211 | 3987 ft | 234 kts | 272° |
| 2026-05-05 18:23 | 49.91107 | 8.37797 | 3986 ft | 238 kts | 299° |
| 2026-05-05 18:23 | 49.92249 | 8.35939 | 4017 ft | 242 kts | 325° |
| 2026-05-05 18:23 | 49.93763 | 8.34750 | 4020 ft | 246 kts | 334° |
| 2026-05-05 18:24 | 49.95350 | 8.33741 | 4023 ft | 247 kts | 335° |
| 2026-05-05 18:24 | 49.96943 | 8.32748 | 4059 ft | 248 kts | 335° |
| 2026-05-05 18:24 | 49.98584 | 8.31707 | 4393 ft | 263 kts | 335° |
| 2026-05-05 18:24 | 50.00307 | 8.30599 | 5191 ft | 271 kts | 335° |
| 2026-05-05 18:25 | 50.02059 | 8.29467 | 6132 ft | 274 kts | 335° |
| 2026-05-05 18:25 | 50.03236 | 8.28720 | 6713 ft | 277 kts | 337° |
| 2026-05-05 18:25 | 50.05819 | 8.28328 | 7828 ft | 288 kts | 9° |
| 2026-05-05 18:25 | 50.07766 | 8.29172 | 8680 ft | 293 kts | 17° |
| 2026-05-05 18:26 | 50.09712 | 8.30212 | 9518 ft | 298 kts | 18° |
| 2026-05-05 18:26 | 50.11689 | 8.31288 | 10216 ft | 308 kts | 17° |
| 2026-05-05 18:26 | 50.13783 | 8.32411 | 10531 ft | 329 kts | 18° |
| 2026-05-05 18:26 | 50.16015 | 8.33597 | 10885 ft | 349 kts | 18° |
| 2026-05-05 18:27 | 50.18353 | 8.34834 | 11502 ft | 358 kts | 18° |
| 2026-05-05 18:27 | 50.20697 | 8.36071 | 12243 ft | 363 kts | 18° |
| 2026-05-05 18:27 | 50.23109 | 8.37343 | 13017 ft | 368 kts | 18° |
| 2026-05-05 18:27 | 50.25552 | 8.38631 | 13777 ft | 373 kts | 18° |
| 2026-05-05 18:28 | 50.30522 | 8.41274 | 15183 ft | 381 kts | 19° |
| 2026-05-05 18:28 | 50.33042 | 8.42644 | 15889 ft | 385 kts | 19° |
| 2026-05-05 18:28 | 50.35587 | 8.44032 | 16593 ft | 388 kts | 20° |
| 2026-05-05 18:29 | 50.38144 | 8.45428 | 17326 ft | 391 kts | 20° |
| 2026-05-05 18:29 | 50.40728 | 8.46841 | 17986 ft | 395 kts | 20° |
| 2026-05-05 18:29 | 50.43338 | 8.48269 | 18566 ft | 399 kts | 20° |
| 2026-05-05 18:29 | 50.45972 | 8.49712 | 19151 ft | 403 kts | 20° |
| 2026-05-05 18:30 | 50.48648 | 8.51093 | 19729 ft | 406 kts | 19° |
| 2026-05-05 18:30 | 50.51363 | 8.52403 | 20305 ft | 410 kts | 18° |
| 2026-05-05 18:30 | 50.54104 | 8.53708 | 20889 ft | 413 kts | 18° |
| 2026-05-05 18:30 | 50.56864 | 8.55024 | 21447 ft | 416 kts | 18° |
| 2026-05-05 18:31 | 50.59647 | 8.56356 | 21959 ft | 421 kts | 18° |
| 2026-05-05 18:31 | 50.62460 | 8.57704 | 22508 ft | 424 kts | 18° |
| 2026-05-05 18:31 | 50.65252 | 8.59235 | 23043 ft | 426 kts | 25° |
| 2026-05-05 18:31 | 50.67867 | 8.61442 | 23532 ft | 427 kts | 33° |
| 2026-05-05 18:32 | 50.70372 | 8.63989 | 23956 ft | 430 kts | 36° |
| 2026-05-05 18:32 | 50.72819 | 8.66731 | 24376 ft | 432 kts | 38° |
| 2026-05-05 18:32 | 50.75234 | 8.69578 | 24808 ft | 435 kts | 39° |
| 2026-05-05 18:32 | 50.77615 | 8.72442 | 25224 ft | 437 kts | 39° |
| 2026-05-05 18:33 | 50.80037 | 8.75366 | 25638 ft | 440 kts | 39° |
| 2026-05-05 18:33 | 50.82478 | 8.78303 | 26044 ft | 442 kts | 39° |
| 2026-05-05 18:33 | 50.84940 | 8.81249 | 26429 ft | 445 kts | 39° |
| 2026-05-05 18:33 | 50.87420 | 8.84205 | 26820 ft | 447 kts | 39° |
| 2026-05-05 18:34 | 50.89914 | 8.87170 | 27195 ft | 450 kts | 39° |
| 2026-05-05 18:34 | 50.92422 | 8.90152 | 27572 ft | 452 kts | 39° |
| 2026-05-05 18:34 | 50.94941 | 8.93147 | 27780 ft | 449 kts | 39° |
| 2026-05-05 18:34 | 50.97393 | 8.96060 | 27805 ft | 433 kts | 39° |
| 2026-05-05 18:35 | 50.99791 | 8.98911 | 27799 ft | 417 kts | 39° |
| 2026-05-05 18:35 | 51.02046 | 9.01597 | 27806 ft | 402 kts | 39° |
| 2026-05-05 18:35 | 51.04245 | 9.04223 | 27805 ft | 388 kts | 40° |
| 2026-05-05 18:35 | 51.06362 | 9.06757 | 27804 ft | 374 kts | 40° |
| 2026-05-05 18:36 | 51.08411 | 9.09215 | 27804 ft | 366 kts | 40° |
| 2026-05-05 18:36 | 51.10438 | 9.11655 | 27804 ft | 365 kts | 40° |
| 2026-05-05 18:36 | 51.12461 | 9.14095 | 27803 ft | 365 kts | 40° |
| 2026-05-05 18:36 | 51.14488 | 9.16541 | 27801 ft | 366 kts | 40° |
| 2026-05-05 18:37 | 51.16516 | 9.18989 | 27802 ft | 366 kts | 40° |
| 2026-05-05 18:37 | 51.18543 | 9.21436 | 27801 ft | 366 kts | 40° |
| 2026-05-05 18:37 | 51.20570 | 9.23885 | 27801 ft | 366 kts | 40° |
| 2026-05-05 18:37 | 51.22604 | 9.26344 | 27804 ft | 368 kts | 40° |
| 2026-05-05 18:38 | 51.24653 | 9.28825 | 27800 ft | 371 kts | 40° |
| 2026-05-05 18:38 | 51.26712 | 9.31319 | 27801 ft | 372 kts | 40° |
| 2026-05-05 18:38 | 51.28097 | 9.32931 | 27793 ft | 373 kts | 33° |
| 2026-05-05 18:38 | 51.30474 | 9.34601 | 27805 ft | 375 kts | 18° |
| 2026-05-05 18:39 | 51.32997 | 9.35701 | 27798 ft | 376 kts | 15° |
| 2026-05-05 18:39 | 51.35545 | 9.36671 | 27799 ft | 377 kts | 14° |
| 2026-05-05 18:39 | 51.38111 | 9.37612 | 27801 ft | 377 kts | 14° |
| 2026-05-05 18:39 | 51.40671 | 9.38541 | 27801 ft | 377 kts | 14° |
| 2026-05-05 18:40 | 51.43234 | 9.39469 | 27803 ft | 377 kts | 14° |
| 2026-05-05 18:40 | 51.45801 | 9.40399 | 27803 ft | 378 kts | 13° |
| 2026-05-05 18:40 | 51.48370 | 9.41330 | 27800 ft | 379 kts | 13° |
| 2026-05-05 18:40 | 51.50945 | 9.42264 | 27801 ft | 380 kts | 13° |
| 2026-05-05 18:41 | 51.53523 | 9.43200 | 27804 ft | 380 kts | 13° |
| 2026-05-05 18:41 | 51.56098 | 9.44137 | 27801 ft | 380 kts | 13° |
| 2026-05-05 18:41 | 51.58678 | 9.45076 | 27805 ft | 380 kts | 13° |
| 2026-05-05 18:41 | 51.61254 | 9.46015 | 27803 ft | 380 kts | 13° |
| 2026-05-05 18:42 | 51.63828 | 9.46954 | 27804 ft | 380 kts | 13° |
| 2026-05-05 18:42 | 51.66407 | 9.47896 | 27817 ft | 380 kts | 13° |
| 2026-05-05 18:42 | 51.68985 | 9.48839 | 27812 ft | 380 kts | 12° |
| 2026-05-05 18:42 | 51.71563 | 9.49782 | 27817 ft | 381 kts | 12° |
| 2026-05-05 18:43 | 51.74148 | 9.50729 | 27816 ft | 381 kts | 12° |
| 2026-05-05 18:43 | 51.76732 | 9.51677 | 27818 ft | 381 kts | 12° |
| 2026-05-05 18:43 | 51.79315 | 9.52626 | 27820 ft | 381 kts | 12° |
| 2026-05-05 18:43 | 51.81902 | 9.53578 | 27818 ft | 381 kts | 12° |
| 2026-05-05 18:44 | 51.84486 | 9.54530 | 27821 ft | 381 kts | 12° |
| 2026-05-05 18:44 | 51.87067 | 9.55481 | 27826 ft | 381 kts | 12° |
| 2026-05-05 18:44 | 51.89653 | 9.56435 | 27824 ft | 381 kts | 12° |
| 2026-05-05 18:44 | 51.92239 | 9.57392 | 27825 ft | 381 kts | 12° |
| 2026-05-05 18:45 | 51.94806 | 9.58341 | 27826 ft | 381 kts | 12° |
| 2026-05-05 18:45 | 51.97357 | 9.59286 | 27825 ft | 381 kts | 12° |
| 2026-05-05 18:45 | 51.99972 | 9.60256 | 27832 ft | 381 kts | 12° |
| 2026-05-05 18:45 | 52.02548 | 9.61212 | 27751 ft | 380 kts | 12° |
| 2026-05-05 18:46 | 52.05143 | 9.62176 | 27094 ft | 386 kts | 12° |
| 2026-05-05 18:46 | 52.07798 | 9.63163 | 26267 ft | 397 kts | 12° |
| 2026-05-05 18:46 | 52.10522 | 9.64177 | 25457 ft | 407 kts | 12° |
| 2026-05-05 18:46 | 52.13314 | 9.65219 | 24660 ft | 417 kts | 12° |
| 2026-05-05 18:47 | 52.16162 | 9.66284 | 23982 ft | 422 kts | 12° |
| 2026-05-05 18:47 | 52.18992 | 9.67343 | 23446 ft | 422 kts | 12° |
| 2026-05-05 18:47 | 52.21846 | 9.68413 | 22930 ft | 420 kts | 12° |
| 2026-05-05 18:47 | 52.24684 | 9.69478 | 22436 ft | 416 kts | 12° |
| 2026-05-05 18:48 | 52.27497 | 9.70534 | 21975 ft | 412 kts | 12° |
| 2026-05-05 18:48 | 52.30278 | 9.71580 | 21514 ft | 408 kts | 12° |
| 2026-05-05 18:48 | 52.33033 | 9.72618 | 21060 ft | 404 kts | 12° |
| 2026-05-05 18:48 | 52.35752 | 9.73643 | 20781 ft | 396 kts | 12° |
| 2026-05-05 18:49 | 52.38396 | 9.74643 | 20615 ft | 385 kts | 12° |
| 2026-05-05 18:49 | 52.40971 | 9.75617 | 20440 ft | 374 kts | 12° |
| 2026-05-05 18:49 | 52.43487 | 9.76569 | 20112 ft | 369 kts | 12° |
| 2026-05-05 18:49 | 52.45995 | 9.77518 | 19522 ft | 372 kts | 12° |
| 2026-05-05 18:50 | 52.48531 | 9.78478 | 18918 ft | 375 kts | 12° |
| 2026-05-05 18:50 | 52.51086 | 9.79448 | 18324 ft | 378 kts | 12° |
| 2026-05-05 18:50 | 52.53655 | 9.80425 | 17676 ft | 380 kts | 12° |
| 2026-05-05 18:50 | 52.56237 | 9.81408 | 17012 ft | 381 kts | 12° |
| 2026-05-05 18:51 | 52.58824 | 9.82394 | 16364 ft | 382 kts | 12° |
| 2026-05-05 18:51 | 52.61389 | 9.83373 | 15737 ft | 383 kts | 12° |
| 2026-05-05 18:51 | 52.64009 | 9.84373 | 15220 ft | 380 kts | 12° |
| 2026-05-05 18:51 | 52.66547 | 9.85345 | 15019 ft | 368 kts | 12° |
| 2026-05-05 18:52 | 52.68982 | 9.86279 | 15004 ft | 351 kts | 12° |
| 2026-05-05 18:52 | 52.71307 | 9.87171 | 15008 ft | 337 kts | 12° |
| 2026-05-05 18:52 | 52.73576 | 9.88042 | 15017 ft | 334 kts | 12° |
| 2026-05-05 18:52 | 52.75846 | 9.88914 | 15018 ft | 335 kts | 12° |
| 2026-05-05 18:53 | 52.78120 | 9.89787 | 15019 ft | 336 kts | 12° |
| 2026-05-05 18:53 | 52.80393 | 9.90662 | 15021 ft | 336 kts | 12° |
| 2026-05-05 18:53 | 52.82641 | 9.91529 | 15021 ft | 336 kts | 12° |
| 2026-05-05 18:53 | 52.84917 | 9.92407 | 15025 ft | 335 kts | 12° |
| 2026-05-05 18:54 | 52.87183 | 9.93282 | 15023 ft | 334 kts | 12° |
| 2026-05-05 18:54 | 52.89449 | 9.94158 | 15023 ft | 334 kts | 12° |
| 2026-05-05 18:54 | 52.91713 | 9.95035 | 15023 ft | 334 kts | 12° |
| 2026-05-05 18:54 | 52.93973 | 9.95910 | 15024 ft | 334 kts | 12° |
| 2026-05-05 18:55 | 52.96254 | 9.96630 | 14910 ft | 333 kts | 7° |
| 2026-05-05 18:55 | 52.98550 | 9.97044 | 14516 ft | 331 kts | 4° |
| 2026-05-05 18:55 | 53.00834 | 9.97388 | 14125 ft | 328 kts | 4° |
| 2026-05-05 18:55 | 53.03106 | 9.97732 | 13717 ft | 327 kts | 4° |
| 2026-05-05 18:56 | 53.05363 | 9.98068 | 13314 ft | 324 kts | 4° |
| 2026-05-05 18:56 | 53.07595 | 9.98396 | 12891 ft | 321 kts | 4° |
| 2026-05-05 18:56 | 53.09820 | 9.98734 | 12434 ft | 321 kts | 4° |
| 2026-05-05 18:56 | 53.12033 | 9.99074 | 12027 ft | 318 kts | 4° |
| 2026-05-05 18:57 | 53.14224 | 9.99406 | 11657 ft | 315 kts | 4° |
| 2026-05-05 18:57 | 53.16406 | 9.99745 | 11202 ft | 315 kts | 4° |
| 2026-05-05 18:57 | 53.18609 | 10.00096 | 10465 ft | 324 kts | 4° |
| 2026-05-05 18:57 | 53.20905 | 10.00453 | 9469 ft | 338 kts | 4° |
| 2026-05-05 18:58 | 53.23229 | 10.00808 | 8575 ft | 338 kts | 4° |
| 2026-05-05 18:58 | 53.25495 | 10.01152 | 8463 ft | 314 kts | 4° |
| 2026-05-05 18:58 | 53.27613 | 10.01285 | 8304 ft | 298 kts | 352° |
| 2026-05-05 18:58 | 53.29513 | 10.00203 | 8144 ft | 283 kts | 326° |
| 2026-05-05 18:59 | 53.31002 | 9.98217 | 7966 ft | 267 kts | 316° |
| 2026-05-05 18:59 | 53.32311 | 9.96090 | 7718 ft | 261 kts | 314° |
| 2026-05-05 18:59 | 53.33609 | 9.93926 | 7118 ft | 269 kts | 314° |
| 2026-05-05 18:59 | 53.34965 | 9.91634 | 6130 ft | 285 kts | 314° |
| 2026-05-05 19:00 | 53.36386 | 9.89164 | 4995 ft | 301 kts | 314° |
| 2026-05-05 19:00 | 53.37830 | 9.86586 | 4332 ft | 303 kts | 314° |
| 2026-05-05 19:00 | 53.39235 | 9.84001 | 4058 ft | 294 kts | 314° |
| 2026-05-05 19:00 | 53.40482 | 9.81410 | 4015 ft | 279 kts | 299° |
| 2026-05-05 19:01 | 53.41028 | 9.78413 | 4021 ft | 263 kts | 279° |
| 2026-05-05 19:01 | 53.41181 | 9.75447 | 4017 ft | 247 kts | 274° |
| 2026-05-05 19:01 | 53.41281 | 9.72665 | 4021 ft | 231 kts | 276° |
| 2026-05-05 19:01 | 53.41168 | 9.70068 | 4020 ft | 221 kts | 249° |
| 2026-05-05 19:02 | 53.40278 | 9.68067 | 4107 ft | 217 kts | 215° |
| 2026-05-05 19:02 | 53.38917 | 9.66995 | 4018 ft | 218 kts | 200° |
| 2026-05-05 19:02 | 53.37450 | 9.66414 | 4027 ft | 217 kts | 186° |
| 2026-05-05 19:02 | 53.36097 | 9.65427 | 4026 ft | 210 kts | 218° |
| 2026-05-05 19:03 | 53.35043 | 9.63846 | 4025 ft | 200 kts | 230° |
| 2026-05-05 19:03 | 53.34537 | 9.61772 | 4029 ft | 191 kts | 270° |
| 2026-05-05 19:03 | 53.34908 | 9.59750 | 4045 ft | 180 kts | 311° |
| 2026-05-05 19:03 | 53.35834 | 9.58356 | 4056 ft | 180 kts | 324° |
| 2026-05-05 19:04 | 53.36869 | 9.57176 | 4018 ft | 180 kts | 335° |
| 2026-05-05 19:04 | 53.38070 | 9.56896 | 4032 ft | 177 kts | 11° |
| 2026-05-05 19:04 | 53.39338 | 9.57543 | 3984 ft | 207 kts | 23° |
| 2026-05-05 19:04 | 53.40743 | 9.58488 | 3988 ft | 224 kts | 24° |
| 2026-05-05 19:05 | 53.42194 | 9.59496 | 4020 ft | 226 kts | 24° |
| 2026-05-05 19:05 | 53.43649 | 9.60512 | 4027 ft | 227 kts | 24° |
| 2026-05-05 19:05 | 53.45086 | 9.61580 | 3973 ft | 225 kts | 33° |
| 2026-05-05 19:05 | 53.46220 | 9.63319 | 3888 ft | 221 kts | 54° |
| 2026-05-05 19:06 | 53.47123 | 9.65382 | 3985 ft | 222 kts | 51° |
| 2026-05-05 19:06 | 53.48092 | 9.67343 | 4008 ft | 214 kts | 50° |
| 2026-05-05 19:06 | 53.49028 | 9.69220 | 4013 ft | 207 kts | 51° |
| 2026-05-05 19:06 | 53.49936 | 9.71075 | 4010 ft | 205 kts | 51° |
| 2026-05-05 19:07 | 53.50844 | 9.72935 | 4002 ft | 206 kts | 51° |
| 2026-05-05 19:07 | 53.51756 | 9.74794 | 3570 ft | 209 kts | 51° |
| 2026-05-05 19:07 | 53.52664 | 9.76650 | 3291 ft | 198 kts | 51° |
| 2026-05-05 19:07 | 53.53481 | 9.78318 | 3446 ft | 174 kts | 51° |
| 2026-05-05 19:08 | 53.54219 | 9.79882 | 3508 ft | 169 kts | 52° |
| 2026-05-05 19:08 | 53.54930 | 9.81437 | 3272 ft | 170 kts | 53° |
| 2026-05-05 19:08 | 53.55654 | 9.83017 | 2836 ft | 167 kts | 52° |
| 2026-05-05 19:08 | 53.56349 | 9.84544 | 2456 ft | 162 kts | 53° |
| 2026-05-05 19:09 | 53.57016 | 9.86019 | 2244 ft | 157 kts | 53° |
| 2026-05-05 19:09 | 53.57687 | 9.87512 | 2212 ft | 159 kts | 53° |
| 2026-05-05 19:09 | 53.58345 | 9.88984 | 2001 ft | 159 kts | 53° |
| 2026-05-05 19:09 | 53.59015 | 9.90490 | 1698 ft | 159 kts | 53° |
| 2026-05-05 19:10 | 53.59680 | 9.91982 | 1329 ft | 160 kts | 53° |
| 2026-05-05 19:10 | 53.60352 | 9.93454 | 897 ft | 156 kts | 51° |
| 2026-05-05 19:10 | 53.61060 | 9.94831 | 477 ft | 155 kts | 49° |
| 2026-05-05 19:10 | 53.61749 | 9.96199 | 126 ft | 152 kts | 51° |
| 2026-05-05 19:11 | 53.62400 | 9.97506 | 44 ft | 117 kts | 50° |
| 2026-05-05 19:11 | 53.62682 | 9.98074 | 47 ft | 18 kts | 50° |
| 2026-05-05 19:11 | 53.62697 | 9.98106 | 47 ft | 12 kts | 53° |
| 2026-05-05 19:11 | 53.62771 | 9.98277 | 47 ft | 25 kts | 46° |